createdAt,value
2023-08-29T00:01:45.555Z,10.30
2023-08-29T00:04:13.112Z,11.07
2023-08-29T00:06:40.560Z,11.65
2023-08-29T00:09:09.466Z,11.98
2023-08-29T00:11:36.962Z,10.02
2023-08-29T00:14:04.421Z,9.25
2023-08-29T00:16:31.952Z,8.20
2023-08-29T00:18:59.461Z,7.25
2023-08-29T00:21:26.913Z,6.80
2023-08-29T00:23:54.343Z,7.03
2023-08-29T00:26:23.366Z,6.78
2023-08-29T00:28:52.638Z,7.90
2023-08-29T00:31:20.146Z,8.35
2023-08-29T00:33:47.589Z,9.25
2023-08-29T00:36:15.032Z,8.18
2023-08-29T00:38:42.600Z,7.82
2023-08-29T00:41:10.096Z,6.50
2023-08-29T00:43:39.138Z,7.18
2023-08-29T00:46:07.038Z,7.22
2023-08-29T00:48:35.625Z,8.18
2023-08-29T00:51:03.109Z,7.95
2023-08-29T00:53:30.784Z,7.43
2023-08-29T00:55:58.483Z,7.75
2023-08-29T00:58:26.000Z,6.50
2023-08-29T01:00:56.398Z,6.47
2023-08-29T01:03:24.196Z,5.95
2023-08-29T01:05:51.696Z,6.13
2023-08-29T01:08:19.278Z,7.30
2023-08-29T01:10:53.471Z,7.47
2023-08-29T01:13:27.816Z,8.75
2023-08-29T01:16:01.990Z,6.05
2023-08-29T01:18:32.658Z,6.50
2023-08-29T01:21:06.161Z,6.88
2023-08-29T01:23:40.029Z,6.60
2023-08-29T01:26:14.725Z,6.90
2023-08-29T01:28:44.727Z,7.53
2023-08-29T01:33:41.359Z,5.50
2023-08-29T01:36:09.186Z,6.22
2023-08-29T01:38:36.770Z,6.65
2023-08-29T01:41:04.755Z,6.00
2023-08-29T01:43:34.951Z,6.25
2023-08-29T01:46:02.585Z,8.07
2023-08-29T01:48:31.756Z,6.65
2023-08-29T01:50:59.571Z,6.47
2023-08-29T01:53:27.598Z,4.72
2023-08-29T01:55:56.552Z,4.82
2023-08-29T01:58:25.185Z,7.07
2023-08-29T02:00:54.493Z,5.55
2023-08-29T02:03:22.833Z,6.25
2023-08-29T02:05:50.338Z,9.75
2023-08-29T02:08:18.005Z,5.82
2023-08-29T02:10:45.483Z,5.07
2023-08-29T02:13:13.577Z,4.88
2023-08-29T02:15:41.036Z,9.32
2023-08-29T02:18:11.466Z,8.90
2023-08-29T02:20:39.312Z,7.30
2023-08-29T02:23:11.229Z,6.18
2023-08-29T02:25:38.690Z,6.80
2023-08-29T02:28:06.672Z,7.45
2023-08-29T02:30:36.457Z,6.70
2023-08-29T02:33:04.738Z,7.63
2023-08-29T02:35:33.672Z,6.28
2023-08-29T02:38:01.948Z,7.25
2023-08-29T02:40:33.339Z,6.90
2023-08-29T02:43:00.763Z,9.20
2023-08-29T02:45:29.636Z,7.83
2023-08-29T02:47:57.189Z,15.63
2023-08-29T02:50:25.216Z,18.15
2023-08-29T02:52:54.097Z,21.85
2023-08-29T02:55:21.656Z,17.87
2023-08-29T02:57:49.173Z,13.60
2023-08-29T03:00:17.456Z,15.63
2023-08-29T03:02:44.935Z,10.15
2023-08-29T03:05:12.514Z,8.65
2023-08-29T03:07:40.006Z,7.30
2023-08-29T03:10:09.949Z,8.45
2023-08-29T03:12:37.630Z,11.18
2023-08-29T03:15:05.787Z,8.45
2023-08-29T03:17:34.252Z,8.52
2023-08-29T03:20:02.686Z,8.57
2023-08-29T03:22:30.186Z,8.95
2023-08-29T03:24:57.620Z,6.93
2023-08-29T03:27:26.502Z,7.43
2023-08-29T03:29:53.986Z,8.02
2023-08-29T03:32:21.804Z,7.63
2023-08-29T03:34:52.888Z,7.20
2023-08-29T03:37:20.367Z,7.28
2023-08-29T03:39:47.943Z,6.75
2023-08-29T03:42:15.393Z,7.47
2023-08-29T03:44:44.350Z,9.13
2023-08-29T03:47:11.827Z,7.10
2023-08-29T03:49:39.852Z,6.72
2023-08-29T03:52:07.519Z,11.15
2023-08-29T03:54:35.617Z,9.18
2023-08-29T03:57:03.136Z,10.13
2023-08-29T03:59:31.391Z,10.57
2023-08-29T04:02:00.290Z,15.55
2023-08-29T04:04:28.015Z,20.92
2023-08-29T04:06:55.621Z,12.25
2023-08-29T04:09:23.117Z,14.18
2023-08-29T04:11:50.724Z,19.65
2023-08-29T04:14:18.229Z,18.30
2023-08-29T04:16:45.808Z,16.60
2023-08-29T04:19:14.811Z,17.15
2023-08-29T04:21:42.270Z,27.35
2023-08-29T04:24:10.960Z,14.30
2023-08-29T04:26:38.467Z,14.55
2023-08-29T04:29:06.005Z,16.52
2023-08-29T04:31:33.574Z,15.98
2023-08-29T04:34:01.113Z,26.08
2023-08-29T04:36:29.994Z,19.60
2023-08-29T04:38:57.488Z,15.30
2023-08-29T04:41:25.649Z,14.23
2023-08-29T04:43:53.095Z,21.67
2023-08-29T04:46:20.640Z,17.27
2023-08-29T04:48:48.137Z,15.70
2023-08-29T04:51:15.646Z,18.90
2023-08-29T04:53:44.631Z,16.23
2023-08-29T04:56:12.071Z,16.98
2023-08-29T04:58:39.577Z,20.45
2023-08-29T05:01:07.119Z,10.40
2023-08-29T05:03:35.214Z,18.20
2023-08-29T05:06:02.805Z,12.60
2023-08-29T05:08:31.795Z,9.95
2023-08-29T05:11:00.680Z,14.38
2023-08-29T05:13:28.298Z,14.35
2023-08-29T05:15:55.827Z,13.65
2023-08-29T05:18:24.243Z,17.38
2023-08-29T05:20:52.475Z,17.27
2023-08-29T05:23:21.613Z,17.48
2023-08-29T05:25:49.114Z,10.38
2023-08-29T05:28:18.156Z,10.23
2023-08-29T05:30:45.818Z,9.23
2023-08-29T05:33:13.959Z,15.63
2023-08-29T05:35:41.589Z,14.25
2023-08-29T05:38:09.202Z,15.40
2023-08-29T05:40:36.801Z,17.23
2023-08-29T05:43:04.559Z,19.13
2023-08-29T05:45:33.596Z,18.75
2023-08-29T05:48:01.169Z,17.00
2023-08-29T05:50:28.698Z,10.10
2023-08-29T05:52:56.390Z,14.57
2023-08-29T05:55:23.976Z,14.45
2023-08-29T05:57:51.490Z,14.43
2023-08-29T06:00:19.850Z,10.57
2023-08-29T06:02:48.864Z,11.32
2023-08-29T06:05:16.508Z,10.13
2023-08-29T06:07:44.810Z,7.43
2023-08-29T06:10:12.287Z,6.72
2023-08-29T06:12:39.962Z,6.22
2023-08-29T06:15:08.714Z,7.28
2023-08-29T06:17:36.187Z,8.45
2023-08-29T06:20:06.366Z,7.00
2023-08-29T06:22:34.037Z,10.68
2023-08-29T06:25:01.540Z,13.75
2023-08-29T06:27:29.049Z,12.27
2023-08-29T06:29:56.803Z,10.45
2023-08-29T06:32:24.356Z,12.52
2023-08-29T06:34:52.225Z,13.35
2023-08-29T06:37:21.457Z,9.90
2023-08-29T06:39:49.037Z,11.63
2023-08-29T06:42:16.567Z,10.93
2023-08-29T06:44:44.086Z,8.50
2023-08-29T06:47:11.522Z,10.43
2023-08-29T06:49:39.073Z,10.63
2023-08-29T06:52:07.011Z,7.28
2023-08-29T06:54:35.951Z,7.85
2023-08-29T06:57:03.521Z,7.90
2023-08-29T06:59:31.055Z,7.55
2023-08-29T07:01:58.636Z,9.50
2023-08-29T07:04:26.117Z,10.02
2023-08-29T07:06:54.890Z,9.35
2023-08-29T07:09:23.490Z,7.30
2023-08-29T07:11:52.362Z,17.63
2023-08-29T07:14:19.877Z,8.63
2023-08-29T07:17:00.109Z,9.40
2023-08-29T07:19:35.348Z,7.45
2023-08-29T07:22:03.270Z,6.82
2023-08-29T07:24:31.378Z,6.20
2023-08-29T07:27:00.311Z,8.95
2023-08-29T07:29:28.166Z,6.80
2023-08-29T07:31:55.673Z,6.43
2023-08-29T07:34:23.168Z,7.78
2023-08-29T07:36:50.781Z,6.78
2023-08-29T07:39:18.278Z,5.95
2023-08-29T07:41:45.838Z,9.88
2023-08-29T07:44:14.797Z,7.93
2023-08-29T07:46:50.194Z,8.02
2023-08-29T07:49:25.938Z,6.03
2023-08-29T07:51:53.388Z,6.45
2023-08-29T07:54:21.079Z,4.97
2023-08-29T07:56:49.184Z,4.90
2023-08-29T07:59:18.089Z,6.97
2023-08-29T08:01:45.607Z,4.40
2023-08-29T08:04:13.201Z,6.40
2023-08-29T08:06:40.720Z,3.97
2023-08-29T08:09:08.214Z,4.18
2023-08-29T08:11:35.664Z,4.13
2023-08-29T08:14:03.241Z,6.90
2023-08-29T08:16:32.151Z,5.43
2023-08-29T08:18:59.825Z,4.88
2023-08-29T08:21:27.370Z,4.78
2023-08-29T08:23:54.932Z,3.92
2023-08-29T08:26:23.018Z,3.45
2023-08-29T08:28:50.730Z,6.65
2023-08-29T08:31:18.227Z,4.40
2023-08-29T08:33:47.351Z,4.38
2023-08-29T08:36:14.910Z,5.63
2023-08-29T08:38:42.422Z,5.40
2023-08-29T08:41:11.723Z,4.75
2023-08-29T08:43:40.024Z,4.10
2023-08-29T08:46:08.731Z,5.70
2023-08-29T08:48:37.701Z,8.30
2023-08-29T08:51:07.264Z,5.38
2023-08-29T08:53:37.394Z,5.25
2023-08-29T08:56:05.603Z,4.20
2023-08-29T08:58:33.122Z,4.25
2023-08-29T09:01:00.677Z,4.47
2023-08-29T09:03:28.239Z,6.65
2023-08-29T09:05:56.267Z,4.70
2023-08-29T09:08:25.267Z,3.80
2023-08-29T09:10:53.504Z,5.03
2023-08-29T09:13:21.681Z,5.03
2023-08-29T09:15:49.335Z,3.80
2023-08-29T09:18:25.377Z,5.57
2023-08-29T09:20:53.674Z,5.40
2023-08-29T09:23:22.235Z,5.00
2023-08-29T09:25:58.404Z,6.28
2023-08-29T09:28:28.140Z,9.70
2023-08-29T09:33:23.369Z,5.55
2023-08-29T09:35:51.234Z,8.77
2023-08-29T09:38:19.235Z,7.18
2023-08-29T09:40:49.572Z,7.72
2023-08-29T09:43:19.026Z,8.25
2023-08-29T09:45:50.391Z,11.05
2023-08-29T09:48:18.181Z,7.82
2023-08-29T09:50:46.783Z,7.28
2023-08-29T09:53:16.426Z,7.05
2023-08-29T09:58:13.707Z,8.77
2023-08-29T10:00:42.741Z,7.95
2023-08-29T10:03:11.928Z,11.23
2023-08-29T10:05:42.337Z,10.48
2023-08-29T10:08:19.541Z,12.27
2023-08-29T10:10:48.657Z,13.60
2023-08-29T10:13:19.563Z,8.82
2023-08-29T10:15:49.505Z,12.38
2023-08-29T10:18:17.903Z,8.65
2023-08-29T10:20:46.996Z,11.18
2023-08-29T10:23:14.558Z,9.38
2023-08-29T10:25:43.141Z,9.30
2023-08-29T10:28:12.174Z,10.75
2023-08-29T10:30:44.254Z,7.25
2023-08-29T10:33:13.715Z,8.63
2023-08-29T10:35:41.406Z,9.15
2023-08-29T10:38:14.445Z,7.90
2023-08-29T10:40:44.352Z,9.73
2023-08-29T10:43:19.104Z,7.13
2023-08-29T10:45:51.265Z,10.48
2023-08-29T10:48:22.383Z,7.13
2023-08-29T10:51:09.796Z,7.35
2023-08-29T10:53:37.891Z,9.70
2023-08-29T10:56:07.673Z,8.75
2023-08-29T10:58:37.578Z,10.73
2023-08-29T11:01:05.259Z,8.52
2023-08-29T11:03:42.203Z,8.30
2023-08-29T11:06:10.017Z,10.93
2023-08-29T11:08:37.686Z,12.80
2023-08-29T11:11:16.506Z,9.88
2023-08-29T11:13:57.818Z,7.90
2023-08-29T11:16:26.313Z,7.85
2023-08-29T11:19:11.097Z,6.88
2023-08-29T11:21:39.572Z,7.68
2023-08-29T11:26:40.426Z,8.80
2023-08-29T11:29:08.545Z,8.02
2023-08-29T11:31:40.044Z,7.03
2023-08-29T11:34:14.864Z,6.68
2023-08-29T11:36:42.468Z,7.78
2023-08-29T11:39:09.941Z,9.68
2023-08-29T11:41:50.427Z,6.88
2023-08-29T11:44:57.064Z,11.50
2023-08-29T11:47:15.053Z,7.00
2023-08-29T11:49:44.340Z,6.20
2023-08-29T11:52:11.918Z,6.95
2023-08-29T11:54:41.153Z,5.65
2023-08-29T11:57:11.607Z,9.20
2023-08-29T11:59:40.973Z,6.45
2023-08-29T12:02:08.801Z,9.57
2023-08-29T12:04:40.472Z,8.93
2023-08-29T12:07:13.361Z,6.35
2023-08-29T12:09:41.902Z,8.10
2023-08-29T12:12:09.854Z,6.82
2023-08-29T12:14:50.534Z,9.32
2023-08-29T12:17:18.102Z,9.23
2023-08-29T12:19:45.700Z,7.90
2023-08-29T12:22:15.011Z,9.88
2023-08-29T12:24:42.488Z,7.85
2023-08-29T12:27:09.990Z,9.73
2023-08-29T12:29:37.501Z,8.45
2023-08-29T12:32:06.523Z,7.93
2023-08-29T12:34:33.999Z,9.52
2023-08-29T12:37:01.459Z,11.02
2023-08-29T12:39:30.342Z,13.80
2023-08-29T12:41:57.897Z,11.17
2023-08-29T12:44:25.320Z,9.93
2023-08-29T12:46:52.846Z,12.50
2023-08-29T12:49:20.668Z,10.15
2023-08-29T12:51:48.175Z,9.43
2023-08-29T12:54:15.694Z,10.68
2023-08-29T12:56:44.628Z,9.70
2023-08-29T12:59:12.626Z,6.25
2023-08-29T13:01:40.187Z,7.07
2023-08-29T13:04:07.801Z,7.32
2023-08-29T13:06:35.670Z,8.32
2023-08-29T13:09:03.190Z,9.48
2023-08-29T13:11:30.766Z,8.63
2023-08-29T13:13:59.751Z,10.25
2023-08-29T13:16:32.447Z,7.28
2023-08-29T13:19:00.026Z,8.80
2023-08-29T13:21:27.468Z,8.52
2023-08-29T13:23:54.940Z,6.15
2023-08-29T13:26:22.835Z,6.30
2023-08-29T13:28:50.455Z,6.95
2023-08-29T13:31:19.500Z,5.97
2023-08-29T13:33:47.070Z,6.03
2023-08-29T13:36:14.512Z,6.00
2023-08-29T13:38:42.016Z,5.18
2023-08-29T13:41:09.570Z,6.60
2023-08-29T13:43:37.096Z,8.32
2023-08-29T13:46:04.659Z,7.13
2023-08-29T13:48:33.713Z,7.18
2023-08-29T13:51:01.286Z,8.50
2023-08-29T13:53:29.132Z,10.82
2023-08-29T13:55:56.566Z,7.68
2023-08-29T13:58:24.021Z,6.10
2023-08-29T14:00:51.520Z,10.07
2023-08-29T14:03:33.230Z,7.78
2023-08-29T14:06:06.706Z,9.23
2023-08-29T14:08:34.286Z,8.98
2023-08-29T14:11:05.522Z,6.78
2023-08-29T14:13:34.904Z,9.63
2023-08-29T14:16:03.524Z,25.85
2023-08-29T14:18:31.125Z,14.07
2023-08-29T14:20:58.700Z,14.32
2023-08-29T14:23:27.749Z,9.82
2023-08-29T14:25:55.427Z,8.80
2023-08-29T14:28:22.918Z,8.50
2023-08-29T14:30:50.375Z,10.88
2023-08-29T14:33:17.847Z,7.75
2023-08-29T14:35:45.370Z,8.70
2023-08-29T14:38:12.851Z,8.52
2023-08-29T14:40:41.793Z,7.68
2023-08-29T14:43:09.343Z,7.78
2023-08-29T14:45:41.449Z,8.00
2023-08-29T14:48:09.306Z,11.10
2023-08-29T14:50:37.113Z,7.45
2023-08-29T14:53:04.999Z,6.35
2023-08-29T14:55:32.791Z,7.57
2023-08-29T14:58:01.810Z,6.60
2023-08-29T15:00:29.403Z,7.18
2023-08-29T15:02:56.896Z,5.55
2023-08-29T15:05:24.831Z,5.95
2023-08-29T15:07:52.314Z,11.05
2023-08-29T15:10:19.823Z,6.88
2023-08-29T15:12:47.305Z,6.13
2023-08-29T15:15:17.880Z,7.82
2023-08-29T15:17:47.504Z,5.10
2023-08-29T15:20:15.600Z,5.13
2023-08-29T15:22:43.298Z,5.40
2023-08-29T15:25:11.705Z,5.97
2023-08-29T15:27:40.209Z,5.17
2023-08-29T15:30:09.181Z,7.40
2023-08-29T15:32:39.239Z,5.90
2023-08-29T15:35:08.353Z,6.50
2023-08-29T15:37:35.990Z,6.97
2023-08-29T15:40:03.863Z,5.25
2023-08-29T15:42:32.167Z,9.65
2023-08-29T15:45:00.717Z,5.95
2023-08-29T15:47:28.442Z,6.47
2023-08-29T15:49:57.627Z,7.35
2023-08-29T15:52:25.205Z,8.20
2023-08-29T15:54:53.273Z,7.50
2023-08-29T15:57:20.773Z,6.07
2023-08-29T15:59:49.466Z,6.50
2023-08-29T16:02:18.026Z,8.07
2023-08-29T16:04:47.162Z,8.30
2023-08-29T16:07:17.180Z,6.68
2023-08-29T16:09:45.640Z,6.60
2023-08-29T16:12:13.797Z,8.40
2023-08-29T16:14:41.899Z,6.68
2023-08-29T16:17:09.446Z,5.80
2023-08-29T16:19:37.040Z,8.50
2023-08-29T16:22:06.051Z,8.77
2023-08-29T16:24:35.977Z,5.88
2023-08-29T16:27:04.596Z,5.90
2023-08-29T16:29:32.130Z,6.22
2023-08-29T16:31:59.591Z,6.93
2023-08-29T16:34:27.293Z,7.68
2023-08-29T16:36:54.722Z,10.65
2023-08-29T16:39:22.173Z,9.45
2023-08-29T16:41:51.242Z,7.63
2023-08-29T16:44:19.030Z,7.18
2023-08-29T16:46:46.646Z,6.35
2023-08-29T16:49:15.104Z,8.05
2023-08-29T16:51:43.147Z,9.27
2023-08-29T16:54:10.879Z,9.77
2023-08-29T16:56:39.007Z,7.38
2023-08-29T16:59:08.192Z,7.53
2023-08-29T17:01:36.213Z,9.95
2023-08-29T17:04:05.777Z,9.35
2023-08-29T17:09:03.229Z,7.57
2023-08-29T17:11:30.997Z,7.20
2023-08-29T17:13:58.885Z,8.32
2023-08-29T17:16:27.775Z,7.70
2023-08-29T17:18:55.264Z,11.90
2023-08-29T17:21:22.767Z,8.60
2023-08-29T17:23:50.451Z,10.15
2023-08-29T17:26:17.883Z,13.27
2023-08-29T17:28:46.078Z,7.72
2023-08-29T17:31:15.955Z,8.93
2023-08-29T17:33:45.026Z,10.75
2023-08-29T17:36:14.286Z,6.65
2023-08-29T17:38:43.203Z,8.95
2023-08-29T17:41:10.817Z,13.45
2023-08-29T17:43:38.408Z,10.93
2023-08-29T17:46:06.432Z,10.13
2023-08-29T17:48:34.361Z,9.77
2023-08-29T17:51:03.243Z,9.35
2023-08-29T17:53:32.172Z,10.13
2023-08-29T17:56:00.413Z,9.00
2023-08-29T17:58:28.016Z,12.27
2023-08-29T18:00:55.825Z,9.55
2023-08-29T18:03:23.594Z,9.10
2023-08-29T18:05:53.574Z,13.80
2023-08-29T18:08:25.690Z,12.15
2023-08-29T18:10:54.414Z,7.80
2023-08-29T18:13:22.341Z,9.50
2023-08-29T18:15:50.033Z,6.97
2023-08-29T18:18:19.000Z,8.20
2023-08-29T18:20:48.037Z,15.30
2023-08-29T18:23:16.257Z,13.85
2023-08-29T18:25:45.836Z,11.07
2023-08-29T18:28:16.464Z,8.15
2023-08-29T18:30:44.564Z,8.70
2023-08-29T18:33:12.601Z,12.02
2023-08-29T18:35:40.751Z,8.55
2023-08-29T18:38:08.471Z,12.43
2023-08-29T18:40:36.369Z,9.02
2023-08-29T18:43:06.086Z,11.35
2023-08-29T18:45:34.170Z,9.57
2023-08-29T18:48:01.653Z,9.30
2023-08-29T18:50:29.185Z,14.48
2023-08-29T18:52:56.813Z,12.60
2023-08-29T18:55:24.530Z,10.35
2023-08-29T18:57:52.360Z,8.23
2023-08-29T19:00:21.269Z,8.93
2023-08-29T19:02:49.719Z,6.68
2023-08-29T19:05:17.288Z,6.30
2023-08-29T19:07:45.179Z,10.95
2023-08-29T19:10:12.905Z,9.88
2023-08-29T19:12:40.409Z,6.22
2023-08-29T19:15:08.768Z,11.65
2023-08-29T19:17:37.885Z,7.20
2023-08-29T19:20:06.398Z,7.60
2023-08-29T19:22:34.312Z,9.73
2023-08-29T19:25:02.027Z,8.25
2023-08-29T19:27:29.554Z,5.70
2023-08-29T19:29:57.156Z,7.38
2023-08-29T19:32:24.722Z,17.20
2023-08-29T19:34:53.740Z,4.97
2023-08-29T19:37:21.336Z,8.38
2023-08-29T19:39:48.900Z,6.38
2023-08-29T19:42:16.449Z,5.60
2023-08-29T19:44:43.970Z,6.65
2023-08-29T19:47:11.483Z,4.97
2023-08-29T19:49:39.826Z,4.60
2023-08-29T19:52:08.901Z,4.10
2023-08-29T19:54:36.568Z,4.97
2023-08-29T19:57:04.307Z,4.18
2023-08-29T19:59:32.088Z,4.30
2023-08-29T20:01:59.634Z,4.00
2023-08-29T20:04:27.147Z,3.55
2023-08-29T20:06:54.639Z,3.80
2023-08-29T20:09:23.674Z,4.03
2023-08-29T20:11:51.252Z,4.97
2023-08-29T20:14:18.710Z,3.78
2023-08-29T20:16:46.223Z,3.55
2023-08-29T20:19:13.723Z,4.35
2023-08-29T20:21:41.197Z,3.97
2023-08-29T20:24:09.043Z,2.50
2023-08-29T20:26:37.965Z,2.47
2023-08-29T20:29:05.587Z,2.80
2023-08-29T20:31:33.254Z,2.42
2023-08-29T20:34:00.956Z,3.03
2023-08-29T20:36:28.800Z,3.15
2023-08-29T20:38:56.283Z,2.85
2023-08-29T20:41:23.836Z,3.05
2023-08-29T20:43:52.903Z,4.28
2023-08-29T20:46:20.858Z,2.55
2023-08-29T20:48:48.313Z,2.22
2023-08-29T20:51:15.806Z,2.80
2023-08-29T20:53:43.569Z,3.08
2023-08-29T20:56:11.177Z,1.98
2023-08-29T20:58:39.700Z,1.52
2023-08-29T21:01:09.446Z,3.10
2023-08-29T21:06:05.027Z,2.97
2023-08-29T21:08:32.542Z,3.15
2023-08-29T21:11:00.140Z,3.67
2023-08-29T21:13:27.662Z,2.83
2023-08-29T21:15:55.154Z,3.28
2023-08-29T21:18:24.005Z,2.17
2023-08-29T21:20:53.472Z,3.10
2023-08-29T21:23:20.919Z,3.15
2023-08-29T21:25:48.838Z,1.60
2023-08-29T21:28:17.621Z,2.90
2023-08-29T21:30:45.850Z,1.75
2023-08-29T21:33:14.150Z,2.35
2023-08-29T21:35:43.970Z,2.10
2023-08-29T21:38:12.520Z,2.60
2023-08-29T21:40:41.152Z,1.92
2023-08-29T21:43:10.289Z,1.98
2023-08-29T21:45:38.366Z,1.30
2023-08-29T21:48:07.599Z,1.83
2023-08-29T21:50:38.455Z,2.35
2023-08-29T21:53:09.150Z,2.35
2023-08-29T21:55:37.260Z,1.63
2023-08-29T21:58:06.086Z,2.90
2023-08-29T22:00:35.889Z,2.15
2023-08-29T22:03:03.753Z,2.58
2023-08-29T22:05:32.112Z,2.00
2023-08-29T22:08:00.273Z,1.60
2023-08-29T22:10:29.206Z,1.70
2023-08-29T22:12:56.631Z,1.75
2023-08-29T22:15:24.088Z,2.10
2023-08-29T22:17:51.582Z,1.85
2023-08-29T22:20:19.375Z,1.60
2023-08-29T22:22:46.881Z,2.20
2023-08-29T22:25:14.977Z,3.63
2023-08-29T22:27:43.996Z,1.30
2023-08-29T22:30:12.565Z,0.90
2023-08-29T22:32:40.479Z,2.47
2023-08-29T22:35:08.592Z,1.90
2023-08-29T22:37:36.127Z,2.25
2023-08-29T22:40:03.997Z,1.63
2023-08-29T22:42:31.517Z,1.63
2023-08-29T22:45:00.402Z,2.40
2023-08-29T22:47:28.299Z,2.55
2023-08-29T22:49:56.320Z,1.23
2023-08-29T22:52:24.331Z,2.83
2023-08-29T22:54:52.294Z,1.27
2023-08-29T22:57:19.752Z,2.35
2023-08-29T22:59:47.391Z,1.33
2023-08-29T23:02:16.381Z,1.42
2023-08-29T23:04:43.831Z,3.30
2023-08-29T23:07:11.830Z,0.90
2023-08-29T23:09:39.407Z,1.50
2023-08-29T23:12:07.518Z,3.58
2023-08-29T23:14:34.996Z,3.28
2023-08-29T23:17:02.507Z,1.02
2023-08-29T23:19:31.416Z,1.95
2023-08-29T23:21:58.913Z,1.20
2023-08-29T23:24:26.466Z,1.13
2023-08-29T23:26:53.895Z,2.08
2023-08-29T23:29:21.380Z,1.00
2023-08-29T23:31:48.929Z,1.17
2023-08-29T23:34:16.497Z,1.48
2023-08-29T23:36:45.629Z,1.13
2023-08-29T23:39:13.117Z,1.55
2023-08-29T23:41:40.560Z,3.25
2023-08-29T23:44:08.098Z,1.33
2023-08-29T23:46:35.611Z,1.27
2023-08-29T23:49:03.096Z,1.55
2023-08-29T23:51:30.563Z,1.08
2023-08-29T23:53:59.473Z,1.33
2023-08-29T23:56:26.965Z,1.13
2023-08-29T23:58:55.411Z,2.22
